createdAt,value
2018-07-23T00:01:32.242Z,7.83
2018-07-23T00:04:01.201Z,7.80
2018-07-23T00:06:30.296Z,7.77
2018-07-23T00:09:01.684Z,7.77
2018-07-23T00:11:30.647Z,7.63
2018-07-23T00:13:59.225Z,6.90
2018-07-23T00:16:27.790Z,8.30
2018-07-23T00:18:56.344Z,7.70
2018-07-23T00:21:25.132Z,8.33
2018-07-23T00:23:53.766Z,7.37
2018-07-23T00:26:22.448Z,7.57
2018-07-23T00:28:51.125Z,7.20
2018-07-23T00:31:20.247Z,8.37
2018-07-23T00:33:48.992Z,7.57
2018-07-23T00:36:17.540Z,7.83
2018-07-23T00:38:46.390Z,8.07
2018-07-23T00:41:15.051Z,7.80
2018-07-23T00:43:43.722Z,7.10
2018-07-23T00:46:12.202Z,7.20
2018-07-23T00:48:40.719Z,8.57
2018-07-23T00:51:09.382Z,8.43
2018-07-23T00:53:37.940Z,8.87
2018-07-23T00:56:06.652Z,9.33
2018-07-23T00:58:35.217Z,8.47
2018-07-23T01:01:03.932Z,8.57
2018-07-23T01:03:32.377Z,8.37
2018-07-23T01:06:00.866Z,7.97
2018-07-23T01:08:29.363Z,7.43
2018-07-23T01:10:58.031Z,7.97
2018-07-23T01:13:26.864Z,8.23
2018-07-23T01:15:55.389Z,7.37
2018-07-23T01:18:23.925Z,7.83
2018-07-23T01:20:52.542Z,8.50
2018-07-23T01:23:21.008Z,8.73
2018-07-23T01:25:49.771Z,7.93
2018-07-23T01:28:18.519Z,8.87
2018-07-23T01:30:47.048Z,8.80
2018-07-23T01:33:22.223Z,9.70
2018-07-23T01:35:50.819Z,8.77
2018-07-23T01:38:19.347Z,8.30
2018-07-23T01:40:48.020Z,9.90
2018-07-23T01:43:16.543Z,9.23
2018-07-23T01:45:45.057Z,9.20
2018-07-23T01:48:13.682Z,9.13
2018-07-23T01:50:42.567Z,9.13
2018-07-23T01:53:11.093Z,9.07
2018-07-23T01:55:39.837Z,9.13
2018-07-23T01:58:08.365Z,9.10
2018-07-23T02:00:36.853Z,9.10
2018-07-23T02:03:05.693Z,8.87
2018-07-23T02:05:34.492Z,8.80
2018-07-23T02:08:03.371Z,9.23
2018-07-23T02:10:31.968Z,9.70
2018-07-23T02:13:00.937Z,10.20
2018-07-23T02:15:29.467Z,9.73
2018-07-23T02:17:58.184Z,9.13
2018-07-23T02:20:26.856Z,9.20
2018-07-23T02:22:55.349Z,9.97
2018-07-23T02:25:23.813Z,9.43
2018-07-23T02:27:52.370Z,10.30
2018-07-23T02:30:21.094Z,9.70
2018-07-23T02:32:49.737Z,9.67
2018-07-23T02:35:18.544Z,9.50
2018-07-23T02:37:47.363Z,9.27
2018-07-23T02:40:15.866Z,10.13
2018-07-23T02:42:44.368Z,8.77
2018-07-23T02:45:12.876Z,10.43
2018-07-23T02:47:41.598Z,8.83
2018-07-23T02:50:10.313Z,9.97
2018-07-23T02:52:38.807Z,9.47
2018-07-23T02:55:07.531Z,9.40
2018-07-23T02:57:36.047Z,9.00
2018-07-23T03:00:05.010Z,9.43
2018-07-23T03:02:33.492Z,9.30
2018-07-23T03:05:02.000Z,9.90
2018-07-23T03:07:30.634Z,9.53
2018-07-23T03:09:59.459Z,9.63
2018-07-23T03:12:27.967Z,9.20
2018-07-23T03:14:56.596Z,9.50
2018-07-23T03:17:25.131Z,9.23
2018-07-23T03:19:53.830Z,9.47
2018-07-23T03:22:22.305Z,8.93
2018-07-23T03:24:50.834Z,9.37
2018-07-23T03:27:19.416Z,8.73
2018-07-23T03:29:48.033Z,9.97
2018-07-23T03:32:16.752Z,9.80
2018-07-23T03:34:45.405Z,11.03
2018-07-23T03:37:13.871Z,9.80
2018-07-23T03:39:43.180Z,10.17
2018-07-23T03:42:12.044Z,10.30
2018-07-23T03:44:40.710Z,10.27
2018-07-23T03:47:09.342Z,9.57
2018-07-23T03:49:37.853Z,10.03
2018-07-23T03:52:06.681Z,10.57
2018-07-23T03:54:35.239Z,10.47
2018-07-23T03:57:03.812Z,10.37
2018-07-23T03:59:32.467Z,9.80
2018-07-23T04:02:00.992Z,9.60
2018-07-23T04:04:29.547Z,10.43
2018-07-23T04:06:58.060Z,10.70
2018-07-23T04:09:26.664Z,9.93
2018-07-23T04:11:55.214Z,10.87
2018-07-23T04:14:23.972Z,10.87
2018-07-23T04:16:52.868Z,10.07
2018-07-23T04:19:21.579Z,10.97
2018-07-23T04:21:50.233Z,10.30
2018-07-23T04:24:18.775Z,10.20
2018-07-23T04:26:47.302Z,11.13
2018-07-23T04:29:15.902Z,10.63
2018-07-23T04:31:44.896Z,9.87
2018-07-23T04:34:13.394Z,9.93
2018-07-23T04:36:41.871Z,9.50
2018-07-23T04:39:10.579Z,9.83
2018-07-23T04:41:39.082Z,9.67
2018-07-23T04:44:07.500Z,10.07
2018-07-23T04:46:35.983Z,8.97
2018-07-23T04:49:04.603Z,9.40
2018-07-23T04:51:33.110Z,9.57
2018-07-23T04:54:01.895Z,9.60
2018-07-23T04:56:30.535Z,9.70
2018-07-23T04:58:59.459Z,9.70
2018-07-23T05:01:28.187Z,8.93
2018-07-23T05:03:56.689Z,9.53
2018-07-23T05:06:25.195Z,9.40
2018-07-23T05:08:53.987Z,9.83
2018-07-23T05:11:22.540Z,9.43
2018-07-23T05:13:51.059Z,9.67
2018-07-23T05:16:19.633Z,9.53
2018-07-23T05:18:48.189Z,9.20
2018-07-23T05:21:16.864Z,9.60
2018-07-23T05:23:45.472Z,9.03
2018-07-23T05:26:14.047Z,9.23
2018-07-23T05:28:42.775Z,9.40
2018-07-23T05:31:11.306Z,10.00
2018-07-23T05:33:39.960Z,9.13
2018-07-23T05:36:08.587Z,9.43
2018-07-23T05:38:37.067Z,9.53
2018-07-23T05:41:05.833Z,10.23
2018-07-23T05:43:34.364Z,9.87
2018-07-23T05:46:02.874Z,10.27
2018-07-23T05:48:31.638Z,9.33
2018-07-23T05:51:00.159Z,10.00
2018-07-23T05:53:28.653Z,9.43
2018-07-23T05:55:57.139Z,10.20
2018-07-23T05:58:25.747Z,9.30
2018-07-23T06:00:54.284Z,10.27
2018-07-23T06:03:23.028Z,9.40
2018-07-23T06:05:51.720Z,9.87
2018-07-23T06:08:20.444Z,10.27
2018-07-23T06:10:49.168Z,10.60
2018-07-23T06:13:17.698Z,10.20
2018-07-23T06:15:46.218Z,10.53
2018-07-23T06:18:15.176Z,9.50
2018-07-23T06:20:43.697Z,9.93
2018-07-23T06:23:12.680Z,9.63
2018-07-23T06:25:41.323Z,9.97
2018-07-23T06:28:10.255Z,9.27
2018-07-23T06:30:38.771Z,10.23
2018-07-23T06:33:07.668Z,9.87
2018-07-23T06:35:36.201Z,11.40
2018-07-23T06:38:04.856Z,10.73
2018-07-23T06:40:33.456Z,9.93
2018-07-23T06:43:02.078Z,11.20
2018-07-23T06:45:30.579Z,10.60
2018-07-23T06:47:59.108Z,11.87
2018-07-23T06:50:27.687Z,11.10
2018-07-23T06:52:56.231Z,11.30
2018-07-23T06:55:24.832Z,12.93
2018-07-23T06:57:53.739Z,11.73
2018-07-23T07:00:22.268Z,10.73
2018-07-23T07:02:51.207Z,11.97
2018-07-23T07:05:19.695Z,12.10
2018-07-23T07:07:48.443Z,12.57
2018-07-23T07:10:16.956Z,12.27
2018-07-23T07:12:45.688Z,11.53
2018-07-23T07:15:14.599Z,12.83
2018-07-23T07:17:43.424Z,11.93
2018-07-23T07:20:12.412Z,11.90
2018-07-23T07:22:41.091Z,13.10
2018-07-23T07:25:09.955Z,12.13
2018-07-23T07:27:38.567Z,11.30
2018-07-23T07:30:08.489Z,11.87
2018-07-23T07:32:37.268Z,11.40
2018-07-23T07:35:06.339Z,12.10
2018-07-23T07:37:34.862Z,11.53
2018-07-23T07:40:03.723Z,12.37
2018-07-23T07:42:32.518Z,12.47
2018-07-23T07:45:01.368Z,14.10
2018-07-23T07:47:29.913Z,13.60
2018-07-23T07:49:58.714Z,14.80
2018-07-23T07:52:27.299Z,13.40
2018-07-23T07:54:56.083Z,11.93
2018-07-23T07:57:24.780Z,9.30
2018-07-23T07:59:53.575Z,9.67
2018-07-23T08:02:22.277Z,7.30
2018-07-23T08:04:50.921Z,7.63
2018-07-23T08:07:19.583Z,6.50
2018-07-23T08:09:48.430Z,6.23
2018-07-23T08:12:17.404Z,5.10
2018-07-23T08:14:46.391Z,7.00
2018-07-23T08:17:15.335Z,6.63
2018-07-23T08:19:43.885Z,6.97
2018-07-23T08:22:12.526Z,5.70
2018-07-23T08:24:40.797Z,5.07
2018-07-23T08:27:09.007Z,5.33
2018-07-23T08:29:37.705Z,4.93
2018-07-23T08:32:07.038Z,4.77
2018-07-23T08:34:35.843Z,4.40
2018-07-23T08:37:04.463Z,4.50
2018-07-23T08:39:33.844Z,3.93
2018-07-23T08:42:02.488Z,4.47
2018-07-23T08:44:31.105Z,4.10
2018-07-23T08:46:59.940Z,3.87
2018-07-23T08:49:28.580Z,3.87
2018-07-23T08:51:57.299Z,3.83
2018-07-23T08:54:26.047Z,3.70
2018-07-23T08:56:55.067Z,4.50
2018-07-23T08:59:23.948Z,3.67
2018-07-23T09:01:52.701Z,3.93
2018-07-23T09:04:21.251Z,4.50
2018-07-23T09:06:50.088Z,4.07
2018-07-23T09:09:18.699Z,4.10
2018-07-23T09:11:47.376Z,2.92
2018-07-23T09:14:16.160Z,3.83
2018-07-23T09:16:44.999Z,3.75
2018-07-23T09:19:13.603Z,3.92
2018-07-23T09:21:42.384Z,3.55
2018-07-23T09:24:11.188Z,3.60
2018-07-23T09:26:40.043Z,3.08
2018-07-23T09:29:08.847Z,3.90
2018-07-23T09:31:37.591Z,3.70
2018-07-23T09:34:06.353Z,3.85
2018-07-23T09:36:34.522Z,3.40
2018-07-23T09:39:03.358Z,4.05
2018-07-23T09:41:31.985Z,3.83
2018-07-23T09:44:00.768Z,3.50
2018-07-23T09:46:29.198Z,3.75
2018-07-23T09:48:57.861Z,4.12
2018-07-23T09:51:26.508Z,3.58
2018-07-23T09:53:55.504Z,3.25
2018-07-23T09:56:24.322Z,3.70
2018-07-23T09:58:53.354Z,3.30
2018-07-23T10:01:22.427Z,3.22
2018-07-23T10:03:50.936Z,3.67
2018-07-23T10:06:19.633Z,3.42
2018-07-23T10:08:48.316Z,3.37
2018-07-23T10:11:17.430Z,2.98
2018-07-23T10:13:45.657Z,3.15
2018-07-23T13:04:15.510Z,2.75
2018-07-23T13:06:44.299Z,3.25
2018-07-23T13:09:13.707Z,3.00
2018-07-23T13:11:42.354Z,3.00
2018-07-23T13:14:11.023Z,2.52
2018-07-23T13:16:39.761Z,2.50
2018-07-23T13:19:08.408Z,2.50
2018-07-23T13:21:37.085Z,2.58
2018-07-23T13:24:06.090Z,2.70
2018-07-23T13:26:35.224Z,2.50
2018-07-23T13:29:03.807Z,3.55
2018-07-23T13:31:32.431Z,2.90
2018-07-23T13:34:00.978Z,2.70
2018-07-23T13:36:29.726Z,2.62
2018-07-23T13:38:58.246Z,3.02
2018-07-23T13:41:27.314Z,4.75
2018-07-23T13:43:56.012Z,3.00
2018-07-23T13:46:24.946Z,2.55
2018-07-23T13:48:53.578Z,2.85
2018-07-23T13:51:22.399Z,2.55
2018-07-23T13:53:51.215Z,2.77
2018-07-23T13:56:20.003Z,2.70
2018-07-23T13:58:48.763Z,2.75
2018-07-23T14:01:17.579Z,2.52
2018-07-23T14:03:46.209Z,2.90
2018-07-23T14:06:14.976Z,3.00
2018-07-23T14:08:43.551Z,2.50
2018-07-23T14:11:12.272Z,2.80
2018-07-23T14:13:40.834Z,2.90
2018-07-23T14:16:09.535Z,2.98
2018-07-23T14:18:38.335Z,3.10
2018-07-23T14:21:07.294Z,3.12
2018-07-23T14:23:36.059Z,2.80
2018-07-23T14:26:04.581Z,3.10
2018-07-23T14:28:33.264Z,2.80
2018-07-23T14:31:02.084Z,3.27
2018-07-23T14:33:30.672Z,3.00
2018-07-23T14:35:59.235Z,3.30
2018-07-23T14:38:27.836Z,3.05
2018-07-23T14:40:56.728Z,3.27
2018-07-23T14:43:25.271Z,3.37
2018-07-23T14:45:54.169Z,3.30
2018-07-23T14:48:23.032Z,3.20
2018-07-23T14:50:51.605Z,3.17
2018-07-23T14:53:20.308Z,2.80
2018-07-23T14:55:49.017Z,3.37
2018-07-23T14:58:17.765Z,3.15
2018-07-23T15:00:46.806Z,3.22
2018-07-23T15:03:15.374Z,3.27
2018-07-23T15:05:44.123Z,3.80
2018-07-23T15:08:13.107Z,3.83
2018-07-23T15:10:41.740Z,3.27
2018-07-23T15:13:10.565Z,3.08
2018-07-23T15:15:39.549Z,3.30
2018-07-23T15:18:08.328Z,3.50
2018-07-23T15:20:37.263Z,2.87
2018-07-23T15:23:06.367Z,2.85
2018-07-23T15:25:35.164Z,3.10
2018-07-23T15:28:04.094Z,2.90
2018-07-23T15:30:32.952Z,3.02
2018-07-23T15:33:01.869Z,3.25
2018-07-23T15:35:30.697Z,3.40
2018-07-23T15:37:59.670Z,3.62
2018-07-23T15:40:28.350Z,3.42
2018-07-23T15:42:57.207Z,3.50
2018-07-23T15:45:25.855Z,3.45
2018-07-23T15:47:54.620Z,3.25
2018-07-23T15:50:23.299Z,3.37
2018-07-23T15:52:51.976Z,3.50
2018-07-23T15:55:20.973Z,3.45
2018-07-23T15:57:49.502Z,4.85
2018-07-23T16:00:18.907Z,8.58
2018-07-23T16:02:47.925Z,4.20
2018-07-23T16:05:16.795Z,4.30
2018-07-23T16:07:45.398Z,3.47
2018-07-23T16:10:13.993Z,3.30
2018-07-23T16:12:42.860Z,3.52
2018-07-23T16:15:11.412Z,4.00
2018-07-23T16:17:40.379Z,3.47
2018-07-23T16:20:09.268Z,3.92
2018-07-23T16:22:38.148Z,4.05
2018-07-23T16:25:07.588Z,3.67
2018-07-23T16:27:36.443Z,3.70
2018-07-23T16:30:06.089Z,3.30
2018-07-23T16:32:34.823Z,3.72
2018-07-23T16:35:03.550Z,2.92
2018-07-23T16:37:32.419Z,3.42
2018-07-23T16:40:01.186Z,3.20
2018-07-23T16:42:29.876Z,3.33
2018-07-23T16:44:58.924Z,2.95
2018-07-23T16:47:27.882Z,3.65
2018-07-23T16:49:56.467Z,3.52
2018-07-23T16:52:25.496Z,3.37
2018-07-23T16:54:54.138Z,3.50
2018-07-23T16:57:22.675Z,3.10
2018-07-23T16:59:51.430Z,3.40
2018-07-23T17:02:20.330Z,3.60
2018-07-23T17:04:48.940Z,3.15
2018-07-23T17:07:17.703Z,3.27
2018-07-23T17:09:46.187Z,3.50
2018-07-23T17:12:14.961Z,3.12
2018-07-23T17:14:43.923Z,3.45
2018-07-23T17:17:12.565Z,3.30
2018-07-23T17:19:41.558Z,3.22
2018-07-23T17:22:10.434Z,3.17
2018-07-23T17:24:38.951Z,3.15
2018-07-23T17:27:07.655Z,3.50
2018-07-23T17:29:37.049Z,3.42
2018-07-23T17:32:05.700Z,3.40
2018-07-23T17:34:34.697Z,3.20
2018-07-23T17:37:03.482Z,3.30
2018-07-23T17:39:32.224Z,3.47
2018-07-23T17:42:00.942Z,3.30
2018-07-23T17:44:29.702Z,3.22
2018-07-23T17:46:58.343Z,3.37
2018-07-23T17:49:27.400Z,3.45
2018-07-23T17:51:56.015Z,3.37
2018-07-23T17:54:24.949Z,3.33
2018-07-23T17:56:53.933Z,3.10
2018-07-23T17:59:22.671Z,3.35
2018-07-23T18:01:51.269Z,2.92
2018-07-23T18:04:19.953Z,3.20
2018-07-23T18:06:48.687Z,3.60
2018-07-23T18:09:17.365Z,3.22
2018-07-23T18:11:45.967Z,3.40
2018-07-23T18:14:14.639Z,3.27
2018-07-23T18:16:43.186Z,3.22
2018-07-23T18:19:11.918Z,4.28
2018-07-23T18:21:40.331Z,3.20
2018-07-23T18:24:09.004Z,3.42
2018-07-23T18:26:37.889Z,3.27
2018-07-23T18:29:06.613Z,3.33
2018-07-23T18:31:35.233Z,3.35
2018-07-23T18:34:03.845Z,3.72
2018-07-23T18:36:32.712Z,3.40
2018-07-23T18:39:01.651Z,3.80
2018-07-23T18:41:30.483Z,3.65
2018-07-23T18:43:59.067Z,3.50
2018-07-23T18:46:27.985Z,3.52
2018-07-23T18:49:34.252Z,3.92
2018-07-23T18:52:03.355Z,3.58
2018-07-23T18:54:32.967Z,3.35
2018-07-23T18:57:02.759Z,4.03
2018-07-23T18:59:31.657Z,3.42
2018-07-23T19:02:01.574Z,3.62
2018-07-23T19:04:30.157Z,3.98
2018-07-23T19:06:59.376Z,3.70
2018-07-23T19:09:28.637Z,3.80
2018-07-23T19:11:58.269Z,3.87
2018-07-23T19:14:27.248Z,3.87
2018-07-23T19:16:56.977Z,3.67
2018-07-23T19:19:25.626Z,4.10
2018-07-23T19:21:54.556Z,4.00
2018-07-23T19:24:23.234Z,3.83
2018-07-23T19:26:51.925Z,3.83
2018-07-23T19:29:20.603Z,3.60
2018-07-23T19:31:49.386Z,3.70
2018-07-23T19:34:18.180Z,4.17
2018-07-23T19:36:46.842Z,4.10
2018-07-23T19:39:16.777Z,3.67
2018-07-23T19:41:45.477Z,3.87
2018-07-23T19:44:14.216Z,3.87
2018-07-23T19:46:43.296Z,3.80
2018-07-23T19:49:12.130Z,4.20
2018-07-23T19:51:40.803Z,4.40
2018-07-23T19:54:09.512Z,4.27
2018-07-23T19:56:38.626Z,3.97
2018-07-23T19:59:07.423Z,4.30
2018-07-23T20:01:36.192Z,4.03
2018-07-23T20:04:05.229Z,4.60
2018-07-23T20:06:33.855Z,5.30
2018-07-23T20:09:03.148Z,4.30
2018-07-23T20:11:31.831Z,4.77
2018-07-23T20:14:00.508Z,4.60
2018-07-23T20:16:29.432Z,4.30
2018-07-23T20:18:57.861Z,4.53
2018-07-23T20:21:26.957Z,4.60
2018-07-23T20:23:55.701Z,4.83
2018-07-23T20:26:24.400Z,4.63
2018-07-23T20:28:53.211Z,4.90
2018-07-23T20:31:21.814Z,4.77
2018-07-23T20:33:50.756Z,4.40
2018-07-23T20:36:19.410Z,4.37
2018-07-23T20:38:48.409Z,4.37
2018-07-23T20:41:17.267Z,4.60
2018-07-23T20:43:45.910Z,4.87
2018-07-23T20:46:14.548Z,4.80
2018-07-23T20:48:43.002Z,4.60
2018-07-23T20:51:11.894Z,4.83
2018-07-23T20:53:41.001Z,5.00
2018-07-23T20:56:10.036Z,4.57
2018-07-23T20:58:39.106Z,5.07
2018-07-23T21:01:07.849Z,4.93
2018-07-23T21:03:36.840Z,4.77
2018-07-23T21:06:05.643Z,5.10
2018-07-23T21:08:34.495Z,5.10
2018-07-23T21:11:03.193Z,5.20
2018-07-23T21:13:31.834Z,5.00
2018-07-23T21:16:00.419Z,5.00
2018-07-23T21:18:29.110Z,4.47
2018-07-23T21:20:57.821Z,4.47
2018-07-23T21:23:26.716Z,4.53
2018-07-23T21:25:55.427Z,4.67
2018-07-23T21:28:24.081Z,4.50
2018-07-23T21:30:52.782Z,5.30
2018-07-23T21:33:21.853Z,4.60
2018-07-23T21:35:51.062Z,5.20
2018-07-23T21:38:20.228Z,5.20
2018-07-23T21:40:48.990Z,5.00
2018-07-23T21:43:17.930Z,5.27
2018-07-23T21:45:46.440Z,5.30
2018-07-23T21:48:14.954Z,5.43
2018-07-23T21:50:43.658Z,4.77
2018-07-23T21:53:12.509Z,4.70
2018-07-23T21:55:41.011Z,5.23
2018-07-23T21:58:09.683Z,5.03
2018-07-23T22:00:38.652Z,5.50
2018-07-23T22:03:07.341Z,5.40
2018-07-23T22:05:36.048Z,5.20
2018-07-23T22:08:04.940Z,4.90
2018-07-23T22:10:33.723Z,5.43
2018-07-23T22:13:02.446Z,4.90
2018-07-23T22:15:30.980Z,5.00
2018-07-23T22:18:00.056Z,5.20
2018-07-23T22:20:28.717Z,5.40
2018-07-23T22:22:57.534Z,5.40
2018-07-23T22:25:26.580Z,5.77
2018-07-23T22:27:55.237Z,5.23
2018-07-23T22:30:23.945Z,4.80
2018-07-23T22:32:52.647Z,5.50
2018-07-23T22:35:21.307Z,5.17
2018-07-23T22:37:50.107Z,5.13
2018-07-23T22:40:18.906Z,5.43
2018-07-23T22:42:47.777Z,5.47
2018-07-23T22:45:16.495Z,5.80
2018-07-23T22:47:45.280Z,5.40
2018-07-23T22:50:13.837Z,5.77
2018-07-23T22:52:42.692Z,5.47
2018-07-23T22:55:11.236Z,5.67
2018-07-23T22:57:39.982Z,6.07
2018-07-23T23:00:08.552Z,5.80
2018-07-23T23:02:37.274Z,5.60
2018-07-23T23:05:06.265Z,6.03
2018-07-23T23:07:36.957Z,5.77
2018-07-23T23:10:05.800Z,5.53
2018-07-23T23:12:34.531Z,5.67
2018-07-23T23:15:03.164Z,6.23
2018-07-23T23:17:31.690Z,6.03
2018-07-23T23:20:00.603Z,5.73
2018-07-23T23:22:29.132Z,6.20
2018-07-23T23:24:58.010Z,6.27
2018-07-23T23:27:26.584Z,5.80
2018-07-23T23:29:55.408Z,6.10
2018-07-23T23:32:24.150Z,6.10
2018-07-23T23:34:52.674Z,5.60
2018-07-23T23:37:21.182Z,6.43
2018-07-23T23:39:50.121Z,5.70
2018-07-23T23:42:18.846Z,5.87
2018-07-23T23:44:47.466Z,6.03
2018-07-23T23:47:16.184Z,6.07
2018-07-23T23:49:45.060Z,5.50
2018-07-23T23:52:13.592Z,6.03
2018-07-23T23:54:42.839Z,6.27
2018-07-23T23:57:11.358Z,6.53
2018-07-23T23:59:39.888Z,6.40
